createdAt,value
2018-03-16T10:58:41.579Z,150
2018-03-16T10:59:40.226Z,140
2018-03-16T11:00:40.724Z,130
2018-03-16T11:01:40.703Z,125
2018-03-16T11:02:40.748Z,120
2018-03-16T11:03:40.955Z,115
2018-03-16T11:04:40.951Z,115
2018-03-16T11:05:40.680Z,115
2018-03-16T11:06:40.448Z,110
2018-03-16T11:07:40.675Z,110
2018-03-16T11:08:41.526Z,110
2018-03-16T11:09:40.946Z,105
2018-03-16T11:10:40.713Z,105
2018-03-16T11:11:40.418Z,110
2018-03-16T11:12:40.926Z,115
2018-03-16T11:13:40.415Z,120
2018-03-16T11:14:40.152Z,125
2018-03-16T11:15:40.667Z,140
2018-03-16T11:16:40.660Z,155
2018-03-16T11:17:40.736Z,170
2018-03-16T11:18:40.927Z,190
2018-03-16T11:19:40.926Z,215
2018-03-16T11:20:40.922Z,225
2018-03-16T11:21:40.656Z,240
2018-03-16T11:22:40.674Z,250
2018-03-16T11:23:41.080Z,260
2018-03-16T11:24:40.667Z,255
2018-03-16T11:25:40.910Z,240
2018-03-16T11:26:40.460Z,230
2018-03-16T11:27:40.900Z,215
2018-03-16T11:28:42.708Z,210
2018-03-16T11:29:40.391Z,205
2018-03-16T11:30:40.903Z,190
2018-03-16T11:31:40.646Z,185
2018-03-16T11:32:40.923Z,190
2018-03-16T11:33:40.384Z,200
2018-03-16T11:34:40.905Z,205
2018-03-16T11:35:40.905Z,220
2018-03-16T11:36:40.637Z,245
2018-03-16T11:37:40.462Z,255
2018-03-16T11:38:40.932Z,255
2018-03-16T11:39:40.628Z,250
2018-03-16T11:40:40.632Z,250
2018-03-16T11:41:40.643Z,255
2018-03-16T11:42:40.905Z,260
2018-03-16T11:43:40.374Z,260
2018-03-16T11:44:40.631Z,260
2018-03-16T11:45:40.642Z,255
2018-03-16T11:46:40.655Z,260
2018-03-16T11:47:40.938Z,260
2018-03-16T11:48:40.662Z,275
2018-03-16T11:49:40.908Z,280
2018-03-16T11:50:40.392Z,280
2018-03-16T11:51:40.383Z,290
2018-03-16T11:52:40.886Z,310
2018-03-16T11:53:40.902Z,310
2018-03-16T11:54:40.914Z,325
2018-03-16T11:55:40.886Z,310
2018-03-16T11:56:40.881Z,300
2018-03-16T11:57:40.683Z,280
2018-03-16T11:58:40.886Z,265
2018-03-16T11:59:41.710Z,250
2018-03-16T12:00:40.883Z,245
2018-03-16T12:01:40.948Z,245
2018-03-16T12:02:40.377Z,235
2018-03-16T12:03:40.637Z,215
2018-03-16T12:04:40.908Z,185
2018-03-16T12:05:40.369Z,165
2018-03-16T12:06:40.888Z,145
2018-03-16T12:07:40.402Z,135
2018-03-16T12:08:40.898Z,125
2018-03-16T12:09:40.620Z,125
2018-03-16T12:10:40.366Z,135
2018-03-16T12:11:40.372Z,155
2018-03-16T12:12:40.897Z,185
2018-03-16T12:13:40.374Z,225
2018-03-16T12:14:40.699Z,255
2018-03-16T12:15:40.373Z,265
2018-03-16T12:16:40.617Z,275
2018-03-16T12:17:40.899Z,300
2018-03-16T12:18:40.347Z,300
2018-03-16T12:19:40.622Z,290
2018-03-16T12:20:40.355Z,275
2018-03-16T12:21:40.706Z,285
2018-03-16T12:22:40.632Z,265
2018-03-16T12:23:40.886Z,255
2018-03-16T12:24:40.612Z,255
2018-03-16T12:25:40.614Z,270
2018-03-16T12:26:40.906Z,280
2018-03-16T12:27:40.616Z,275
2018-03-16T12:29:00.027Z,275
2018-03-16T12:29:41.072Z,280
2018-03-16T12:30:40.639Z,285
2018-03-16T12:31:40.905Z,280
2018-03-16T12:32:40.890Z,280
2018-03-16T12:33:40.886Z,305
2018-03-16T12:34:40.906Z,310
2018-03-16T12:35:40.682Z,295
2018-03-16T12:36:40.614Z,290
2018-03-16T12:37:40.634Z,280
2018-03-16T12:38:40.757Z,265
2018-03-16T12:39:40.339Z,265
2018-03-16T12:40:40.889Z,235
2018-03-16T12:41:40.912Z,235
2018-03-16T12:42:40.599Z,250
2018-03-16T12:43:40.103Z,245
2018-03-16T12:44:40.661Z,235
2018-03-16T12:45:40.078Z,225
2018-03-16T12:46:40.896Z,225
2018-03-16T12:47:40.589Z,225
2018-03-16T12:48:40.601Z,240
2018-03-16T12:49:40.890Z,275
2018-03-16T12:50:40.870Z,260
2018-03-16T12:51:49.591Z,255
2018-03-16T12:52:40.873Z,265
2018-03-16T12:53:40.491Z,275
2018-03-16T12:54:40.881Z,280
2018-03-16T12:55:40.360Z,295
2018-03-16T12:56:40.875Z,305
2018-03-16T12:57:40.636Z,290
2018-03-16T12:58:40.620Z,315
2018-03-16T12:59:42.776Z,330
2018-03-16T13:00:40.889Z,335
2018-03-16T13:01:40.347Z,300
2018-03-16T13:02:40.888Z,335
2018-03-16T13:03:40.358Z,335
2018-03-16T13:04:40.595Z,320
2018-03-16T13:05:40.602Z,290
2018-03-16T13:06:40.609Z,290
2018-03-16T13:07:40.882Z,250
2018-03-16T13:08:40.624Z,230
2018-03-16T13:09:40.624Z,250
2018-03-16T13:10:40.893Z,245
2018-03-16T13:11:40.360Z,245
2018-03-16T13:12:40.866Z,240
2018-03-16T13:13:40.893Z,235
2018-03-16T13:14:40.856Z,235
2018-03-16T13:15:40.361Z,240
2018-03-16T13:16:40.359Z,235
2018-03-16T13:17:40.617Z,220
2018-03-16T13:18:40.350Z,205
2018-03-16T13:19:40.630Z,205
2018-03-16T13:20:40.895Z,210
2018-03-16T13:21:40.642Z,215
2018-03-16T13:22:40.348Z,205
2018-03-16T13:23:40.599Z,210
2018-03-16T13:24:40.383Z,215
2018-03-16T13:25:40.889Z,220
2018-03-16T13:26:40.088Z,235
2018-03-16T13:27:40.352Z,245
2018-03-16T13:28:40.919Z,250
2018-03-16T13:29:41.919Z,250
2018-03-16T13:30:40.614Z,250
2018-03-16T13:31:40.615Z,250
2018-03-16T13:32:40.869Z,255
2018-03-16T13:33:40.609Z,275
2018-03-16T13:34:40.612Z,285
2018-03-16T13:35:40.595Z,285
2018-03-16T13:36:40.883Z,280
2018-03-16T13:37:40.617Z,250
2018-03-16T13:38:40.876Z,245
2018-03-16T13:39:40.597Z,240
2018-03-16T13:40:40.626Z,240
2018-03-16T13:41:40.612Z,280
2018-03-16T13:42:40.611Z,275
2018-03-16T13:43:40.878Z,265
2018-03-16T13:44:40.337Z,275
2018-03-16T13:45:40.084Z,275
2018-03-16T13:46:40.598Z,265
2018-03-16T13:47:40.615Z,225
2018-03-16T13:48:40.594Z,220
2018-03-16T13:49:40.600Z,225
2018-03-16T13:50:40.345Z,235
2018-03-16T13:51:40.679Z,235
2018-03-16T13:52:40.878Z,230
2018-03-16T13:53:40.613Z,225
2018-03-16T13:54:39.814Z,220
2018-03-16T13:55:40.345Z,215
2018-03-16T13:56:40.340Z,215
2018-03-16T13:57:40.947Z,225
2018-03-16T13:58:40.707Z,225
2018-03-16T13:59:40.806Z,230
2018-03-16T14:00:48.786Z,250
2018-03-16T14:01:40.782Z,255
2018-03-16T14:02:40.476Z,235
2018-03-16T14:03:40.779Z,230
2018-03-16T14:04:40.732Z,220
2018-03-16T14:05:41.839Z,215
2018-03-16T14:06:40.824Z,220
2018-03-16T14:07:40.916Z,220
2018-03-16T14:08:41.299Z,185
2018-03-16T14:09:42.146Z,195
2018-03-16T14:10:41.145Z,185
2018-03-16T14:11:41.160Z,195
2018-03-16T14:12:40.861Z,205
2018-03-16T14:13:40.688Z,215
2018-03-16T14:14:40.626Z,215
2018-03-16T14:15:40.615Z,210
2018-03-16T14:16:40.886Z,200
2018-03-16T14:17:40.880Z,195
2018-03-16T14:18:40.609Z,195
2018-03-16T14:19:40.336Z,195
2018-03-16T14:20:40.878Z,220
2018-03-16T14:21:40.628Z,200
2018-03-16T14:22:40.621Z,190
2018-03-16T14:23:40.612Z,180
2018-03-16T14:24:40.635Z,180
2018-03-16T14:25:40.596Z,205
2018-03-16T14:26:40.882Z,200
2018-03-16T14:27:40.613Z,170
2018-03-16T14:28:41.660Z,165
2018-03-16T14:29:40.693Z,165
2018-03-16T14:30:40.887Z,175
2018-03-16T14:31:41.939Z,185
2018-03-16T14:32:40.680Z,215
2018-03-16T14:33:40.890Z,220
2018-03-16T14:34:40.595Z,225
2018-03-16T14:35:40.600Z,200
2018-03-16T14:36:40.876Z,215
2018-03-16T14:37:40.607Z,200
2018-03-16T14:38:40.875Z,165
2018-03-16T14:39:40.483Z,165
2018-03-16T14:40:40.709Z,175
2018-03-16T14:41:40.341Z,150
2018-03-16T14:42:40.751Z,150
2018-03-16T14:43:40.666Z,150
2018-03-16T14:44:40.681Z,170
2018-03-16T14:45:40.367Z,155
2018-03-16T14:46:40.865Z,155
2018-03-16T14:47:40.625Z,155
2018-03-16T14:48:40.608Z,180
2018-03-16T14:49:40.419Z,150
2018-03-16T14:50:40.895Z,175
2018-03-16T14:51:40.895Z,140
2018-03-16T14:52:40.616Z,140
2018-03-16T14:53:40.630Z,140
2018-03-16T14:54:40.665Z,140
2018-03-16T14:55:40.430Z,140
2018-03-16T14:56:40.604Z,155
2018-03-16T14:57:40.880Z,160
2018-03-16T14:58:40.605Z,165
2018-03-16T14:59:40.077Z,140
2018-03-16T15:00:40.601Z,150
2018-03-16T15:01:42.922Z,140
2018-03-16T15:02:40.338Z,130
2018-03-16T15:03:40.616Z,130
2018-03-16T15:04:40.333Z,130
2018-03-16T15:05:40.842Z,125
2018-03-16T15:06:40.618Z,125
2018-03-16T15:07:40.841Z,125
2018-03-16T15:08:40.580Z,130
2018-03-16T15:09:40.849Z,130
2018-03-16T15:10:40.334Z,130
2018-03-16T15:11:40.847Z,135
2018-03-16T15:12:40.844Z,140
2018-03-16T15:13:40.857Z,140
2018-03-16T15:14:40.597Z,140
2018-03-16T15:15:40.841Z,140
2018-03-16T15:16:40.364Z,135
2018-03-16T15:17:40.592Z,135
2018-03-16T15:18:40.854Z,140
2018-03-16T15:19:40.830Z,135
2018-03-16T15:20:40.588Z,135
2018-03-16T15:21:40.842Z,130
2018-03-16T15:22:40.568Z,130
2018-03-16T15:23:40.870Z,135
2018-03-16T15:24:40.265Z,135
2018-03-16T15:25:40.022Z,125
2018-03-16T15:26:40.791Z,125
2018-03-16T15:27:40.777Z,115
2018-03-16T15:28:40.223Z,115
2018-03-16T15:29:40.844Z,115
2018-03-16T15:30:40.224Z,120
2018-03-16T15:31:41.798Z,110
2018-03-16T15:32:40.745Z,105
2018-03-16T15:33:40.785Z,105
2018-03-16T15:34:40.746Z,105
2018-03-16T15:35:40.519Z,105
2018-03-16T15:36:40.206Z,105
2018-03-16T15:37:40.738Z,110
2018-03-16T15:38:40.768Z,125
2018-03-16T15:39:40.721Z,130
2018-03-16T15:40:40.744Z,135
2018-03-16T15:41:40.470Z,135
2018-03-16T15:42:40.208Z,135
2018-03-16T15:43:40.485Z,130
2018-03-16T15:44:40.726Z,130
2018-03-16T15:45:40.205Z,130
2018-03-16T15:46:40.480Z,130
2018-03-16T15:47:40.480Z,125
2018-03-16T15:48:40.207Z,130
2018-03-16T15:49:40.456Z,125
2018-03-16T15:50:40.451Z,120
2018-03-16T15:51:40.484Z,125
2018-03-16T15:52:40.479Z,125
2018-03-16T15:53:40.724Z,120
2018-03-16T15:54:40.745Z,120
2018-03-16T15:55:40.193Z,115
2018-03-16T15:56:40.184Z,115
2018-03-16T15:57:40.208Z,115
2018-03-16T15:58:40.197Z,115
2018-03-16T15:59:40.695Z,110
2018-03-16T16:00:39.927Z,95
2018-03-16T16:01:41.803Z,95
2018-03-16T16:02:40.216Z,95
2018-03-16T16:03:40.459Z,105
2018-03-16T16:04:40.542Z,95
2018-03-16T16:05:40.704Z,95
2018-03-16T16:06:40.443Z,95
2018-03-16T16:07:40.449Z,90
2018-03-16T16:08:40.853Z,95
2018-03-16T16:09:40.194Z,95
2018-03-16T16:10:40.755Z,90
2018-03-16T16:11:40.431Z,90
2018-03-16T16:12:40.675Z,85
2018-03-16T16:13:40.721Z,85
2018-03-16T16:14:40.173Z,85
2018-03-16T16:15:40.448Z,85
2018-03-16T16:16:40.202Z,80
2018-03-16T16:17:40.501Z,80
2018-03-16T16:18:40.416Z,80
2018-03-16T16:19:40.471Z,80
2018-03-16T16:20:40.687Z,75
2018-03-16T16:21:40.672Z,75
2018-03-16T16:22:40.692Z,75
2018-03-16T16:23:40.405Z,80
2018-03-16T16:24:40.659Z,80
2018-03-16T16:25:40.666Z,80
2018-03-16T16:26:40.719Z,80
2018-03-16T16:27:40.653Z,75
2018-03-16T16:28:40.412Z,75
2018-03-16T16:29:40.644Z,75
2018-03-16T16:30:40.860Z,75
2018-03-16T16:31:40.404Z,75
2018-03-16T16:32:43.035Z,75
2018-03-16T16:33:40.693Z,75
2018-03-16T16:34:40.754Z,75
2018-03-16T16:35:40.419Z,75
2018-03-16T16:36:40.694Z,75
2018-03-16T16:37:40.388Z,70
2018-03-16T16:38:40.487Z,70
2018-03-16T16:39:40.620Z,65
2018-03-16T16:40:40.477Z,65
2018-03-16T16:41:40.376Z,60
2018-03-16T16:42:40.117Z,60
2018-03-16T16:43:40.174Z,60
2018-03-16T16:44:40.407Z,55
2018-03-16T16:45:39.867Z,55
2018-03-16T16:46:40.395Z,50
2018-03-16T16:47:40.806Z,50
2018-03-16T16:48:40.607Z,50
2018-03-16T16:49:40.090Z,45
2018-03-16T16:50:40.344Z,45
2018-03-16T16:51:40.623Z,45
2018-03-16T16:52:40.608Z,45
2018-03-16T16:53:40.597Z,40
2018-03-16T16:54:40.609Z,40
2018-03-16T16:55:40.338Z,40
2018-03-16T16:56:40.127Z,40
2018-03-16T16:57:40.644Z,35
2018-03-16T16:58:40.339Z,35
2018-03-16T16:59:40.068Z,35
2018-03-16T17:00:40.322Z,35
2018-03-16T17:01:40.124Z,35
2018-03-16T17:02:45.027Z,35
2018-03-16T17:03:40.578Z,30
2018-03-16T17:04:40.578Z,30
2018-03-16T17:05:40.600Z,30
2018-03-16T17:06:40.576Z,30
2018-03-16T17:07:40.299Z,25
2018-03-16T17:08:40.299Z,25
2018-03-16T17:09:40.061Z,25
2018-03-16T17:10:40.043Z,25
2018-03-16T17:11:40.309Z,20
2018-03-16T17:12:40.552Z,20
2018-03-16T17:13:40.551Z,20
2018-03-16T17:14:40.282Z,20
2018-03-16T17:15:40.539Z,20
2018-03-16T17:16:40.028Z,15
2018-03-16T17:17:40.543Z,15
2018-03-16T17:18:40.301Z,15
2018-03-16T17:19:40.538Z,10
2018-03-16T17:20:40.286Z,10
2018-03-16T17:21:40.528Z,10
2018-03-16T17:22:40.284Z,10
2018-03-16T17:23:40.535Z,10
2018-03-16T17:24:40.557Z,5
2018-03-16T17:25:40.259Z,5
2018-03-16T17:26:40.502Z,5
2018-03-16T17:27:40.319Z,5
2018-03-16T17:28:40.254Z,5
2018-03-16T17:29:39.732Z,5
2018-03-16T17:30:40.562Z,5
2018-03-16T17:31:40.308Z,5
2018-03-16T17:32:40.025Z,0
2018-03-16T17:33:42.408Z,0
2018-03-16T17:34:40.494Z,0
2018-03-16T17:35:40.229Z,0
2018-03-16T17:36:40.491Z,0
2018-03-16T17:37:39.965Z,0
2018-03-16T17:38:40.211Z,0
2018-03-16T17:39:40.457Z,0
2018-03-16T17:40:40.207Z,0
2018-03-16T17:41:40.215Z,0
2018-03-16T17:42:40.238Z,0
2018-03-16T17:43:40.201Z,0
2018-03-16T17:44:40.449Z,0
2018-03-16T17:45:39.946Z,0
2018-03-16T17:46:40.204Z,0
2018-03-16T17:47:40.437Z,0
2018-03-16T17:48:41.240Z,0
2018-03-16T17:49:40.430Z,0
2018-03-16T17:50:40.191Z,0
2018-03-16T17:51:39.955Z,0
2018-03-16T17:52:40.429Z,0
2018-03-16T17:53:40.154Z,0
2018-03-16T17:54:40.435Z,0
2018-03-16T17:55:40.467Z,0
2018-03-16T17:56:39.994Z,0
2018-03-16T17:57:40.155Z,0
2018-03-16T17:58:40.444Z,0
2018-03-16T17:59:40.493Z,0
2018-03-16T18:00:40.285Z,0
2018-03-16T18:01:40.382Z,0
2018-03-16T18:02:40.201Z,0
2018-03-16T18:03:41.566Z,0
2018-03-16T18:04:40.456Z,0
2018-03-16T18:05:40.400Z,0
2018-03-16T18:06:39.856Z,0
2018-03-16T18:07:40.118Z,0
2018-03-16T18:08:40.096Z,0
2018-03-16T18:09:40.448Z,0
2018-03-16T18:10:40.154Z,0
2018-03-16T18:11:40.660Z,0
2018-03-16T18:12:40.092Z,0
2018-03-16T18:13:39.842Z,0
2018-03-16T18:14:40.202Z,0
2018-03-16T18:15:39.824Z,0
2018-03-16T18:16:40.109Z,0
2018-03-16T18:17:40.101Z,0
2018-03-16T18:18:40.118Z,0
2018-03-16T18:19:40.057Z,0
2018-03-16T18:20:39.743Z,0
2018-03-16T18:21:40.316Z,0
2018-03-16T18:22:40.306Z,0
2018-03-16T18:23:40.350Z,0
2018-03-16T18:24:39.810Z,0
2018-03-16T18:25:40.217Z,0
2018-03-16T18:26:39.849Z,0
2018-03-16T18:27:39.519Z,0
2018-03-16T18:28:40.164Z,0
2018-03-16T18:29:40.036Z,0
2018-03-16T18:30:40.319Z,0
2018-03-16T18:31:40.270Z,0
2018-03-16T18:32:40.305Z,0
2018-03-16T18:33:40.019Z,0
2018-03-16T18:34:40.042Z,0
2018-03-16T18:35:40.291Z,0
2018-03-16T18:36:40.273Z,0
2018-03-16T18:37:40.015Z,0
2018-03-16T18:38:40.002Z,0
2018-03-16T18:39:39.726Z,0
2018-03-16T18:40:40.225Z,0
2018-03-16T18:41:39.986Z,0
2018-03-16T18:42:40.232Z,0
2018-03-16T18:43:39.978Z,0
2018-03-16T18:44:39.964Z,0
2018-03-16T18:45:40.200Z,0
2018-03-16T18:46:39.783Z,0
2018-03-16T18:47:39.941Z,0
2018-03-16T18:48:40.239Z,0
2018-03-16T18:49:39.950Z,0
2018-03-16T18:50:39.944Z,0
2018-03-16T18:51:39.934Z,0
2018-03-16T18:52:39.663Z,0
2018-03-16T18:53:39.977Z,0
2018-03-16T18:54:39.674Z,0
2018-03-16T18:55:39.922Z,0
2018-03-16T18:56:39.658Z,0
2018-03-16T18:57:39.910Z,0
2018-03-16T18:58:40.159Z,0
2018-03-16T18:59:39.897Z,0
2018-03-16T19:00:40.186Z,0
2018-03-16T19:01:40.148Z,0
2018-03-16T19:02:39.880Z,0
2018-03-16T19:03:40.127Z,0
2018-03-16T19:04:40.106Z,0
2018-03-16T19:05:39.360Z,0
2018-03-16T19:06:39.910Z,0
2018-03-16T19:07:40.113Z,0
2018-03-16T19:08:40.109Z,0
2018-03-16T19:09:40.170Z,0
2018-03-16T19:10:39.580Z,0
2018-03-16T19:11:40.086Z,0
2018-03-16T19:12:39.837Z,0
2018-03-16T19:13:39.560Z,0
2018-03-16T19:14:40.090Z,0
2018-03-16T19:15:40.078Z,0
2018-03-16T19:16:39.587Z,0
2018-03-16T19:17:39.551Z,0
2018-03-16T19:18:39.797Z,0
2018-03-16T19:19:39.680Z,0
2018-03-16T19:20:40.066Z,0
2018-03-16T19:21:39.798Z,0
2018-03-16T19:22:39.791Z,0
2018-03-16T19:23:39.800Z,0
2018-03-16T19:24:39.503Z,0
2018-03-16T19:25:39.816Z,0
2018-03-16T19:26:40.013Z,0
2018-03-16T19:27:39.509Z,0
2018-03-16T19:28:39.497Z,0
2018-03-16T19:29:39.226Z,0
2018-03-16T19:30:39.528Z,0
2018-03-16T19:31:39.737Z,0
2018-03-16T19:32:39.477Z,0
2018-03-16T19:33:39.986Z,0
2018-03-16T19:34:43.664Z,0
2018-03-16T19:35:39.707Z,0
2018-03-16T19:36:39.469Z,0
2018-03-16T19:37:39.973Z,0
2018-03-16T19:38:39.962Z,0
2018-03-16T19:39:39.684Z,0
2018-03-16T19:40:39.682Z,0
2018-03-16T19:41:39.686Z,0
2018-03-16T19:42:39.676Z,0
2018-03-16T19:43:39.935Z,0
2018-03-16T19:44:39.678Z,0
2018-03-16T19:45:39.907Z,0
2018-03-16T19:46:39.914Z,0
2018-03-16T19:47:39.657Z,0
2018-03-16T19:48:40.102Z,0
2018-03-16T19:49:39.688Z,0
2018-03-16T19:50:39.888Z,0
2018-03-16T19:51:39.617Z,0
2018-03-16T19:52:39.366Z,0
2018-03-16T19:53:39.871Z,0
2018-03-16T19:54:39.744Z,0
2018-03-16T19:55:39.860Z,0
2018-03-16T19:56:39.860Z,0
2018-03-16T19:57:39.346Z,0
2018-03-16T19:58:39.842Z,0
2018-03-16T19:59:39.854Z,0
2018-03-16T20:00:39.426Z,0
2018-03-16T20:01:39.618Z,0
2018-03-16T20:02:39.334Z,0
2018-03-16T20:03:39.562Z,0
2018-03-16T20:04:41.363Z,0
2018-03-16T20:05:39.829Z,0
2018-03-16T20:06:39.392Z,0
2018-03-16T20:07:39.307Z,0
2018-03-16T20:08:39.554Z,0
2018-03-16T20:09:39.536Z,0
2018-03-16T20:10:39.285Z,0
2018-03-16T20:11:39.272Z,0
2018-03-16T20:12:39.526Z,0
2018-03-16T20:13:39.768Z,0
2018-03-16T20:14:39.246Z,0
2018-03-16T20:15:39.757Z,0
2018-03-16T20:16:39.497Z,0
2018-03-16T20:17:39.763Z,0
2018-03-16T20:18:39.493Z,0
2018-03-16T20:19:41.261Z,0
2018-03-16T20:20:39.478Z,0
2018-03-16T20:21:38.959Z,0
2018-03-16T20:22:39.233Z,0
2018-03-16T20:23:39.710Z,0
2018-03-16T20:24:39.447Z,0
2018-03-16T20:25:39.443Z,0
2018-03-16T20:26:39.191Z,0
2018-03-16T20:27:39.708Z,0
2018-03-16T20:28:39.187Z,0
2018-03-16T20:29:39.440Z,0
2018-03-16T20:30:39.673Z,0
2018-03-16T20:31:39.782Z,0
2018-03-16T20:32:39.425Z,0
2018-03-16T20:33:39.179Z,0
2018-03-16T20:34:39.405Z,0
2018-03-16T20:35:43.277Z,0
2018-03-16T20:36:39.138Z,0
2018-03-16T20:37:39.649Z,0
2018-03-16T20:38:39.391Z,0
2018-03-16T20:39:39.624Z,0
2018-03-16T20:40:38.866Z,0
2018-03-16T20:41:39.362Z,0
2018-03-16T20:42:39.157Z,0
2018-03-16T20:43:39.616Z,0
2018-03-16T20:44:39.377Z,0
2018-03-16T20:45:39.340Z,0
2018-03-16T20:46:39.389Z,0
2018-03-16T20:47:39.411Z,0
2018-03-16T20:48:39.607Z,0
2018-03-16T20:49:39.334Z,0
2018-03-16T20:50:39.089Z,0
2018-03-16T20:51:39.323Z,0
2018-03-16T20:52:39.553Z,0
2018-03-16T20:53:39.052Z,0
2018-03-16T20:54:39.290Z,0
2018-03-16T20:55:39.285Z,0
2018-03-16T20:56:39.275Z,0
2018-03-16T20:57:39.537Z,0
2018-03-16T20:58:39.534Z,0
2018-03-16T20:59:39.524Z,0
2018-03-16T21:00:39.514Z,0
2018-03-16T21:01:39.282Z,0
2018-03-16T21:02:38.982Z,0
2018-03-16T21:03:39.250Z,0
2018-03-16T21:04:38.981Z,0
2018-03-16T21:05:40.329Z,0
2018-03-16T21:06:39.471Z,0
2018-03-16T21:07:39.465Z,0
2018-03-16T21:08:39.217Z,0
2018-03-16T21:09:39.457Z,0
2018-03-16T21:10:39.467Z,0
2018-03-16T21:11:38.931Z,0
2018-03-16T21:12:39.452Z,0
2018-03-16T21:13:39.165Z,0
2018-03-16T21:14:39.156Z,0
2018-03-16T21:15:39.161Z,0
2018-03-16T21:16:39.429Z,0
2018-03-16T21:17:39.159Z,0
2018-03-16T21:18:39.396Z,0
2018-03-16T21:19:38.885Z,0
2018-03-16T21:20:41.016Z,0
2018-03-16T21:21:39.181Z,0
2018-03-16T21:22:39.372Z,0
2018-03-16T21:23:38.600Z,0
2018-03-16T21:24:39.101Z,0
2018-03-16T21:25:38.853Z,0
2018-03-16T21:26:38.595Z,0
2018-03-16T21:27:39.089Z,0
2018-03-16T21:28:39.090Z,0
2018-03-16T21:29:39.358Z,0
2018-03-16T21:30:39.326Z,0
2018-03-16T21:31:39.062Z,0
2018-03-16T21:32:39.071Z,0
2018-03-16T21:33:39.047Z,0
2018-03-16T21:34:39.295Z,0
2018-03-16T21:35:39.070Z,0
2018-03-16T21:36:40.685Z,0
2018-03-16T21:37:39.035Z,0
2018-03-16T21:38:39.286Z,0
2018-03-16T21:39:39.016Z,0
2018-03-16T21:40:39.264Z,0
2018-03-16T21:41:39.125Z,0
2018-03-16T21:42:39.250Z,0
2018-03-16T21:43:38.985Z,0
2018-03-16T21:44:39.236Z,0
2018-03-16T21:45:38.724Z,0
2018-03-16T21:46:39.217Z,0
2018-03-16T21:47:39.234Z,0
2018-03-16T21:48:38.945Z,0
2018-03-16T21:49:39.212Z,0
2018-03-16T21:50:38.959Z,0
2018-03-16T21:51:40.184Z,0
2018-03-16T21:52:38.937Z,0
2018-03-16T21:53:39.190Z,0
2018-03-16T21:54:38.922Z,0
2018-03-16T21:55:39.166Z,0
2018-03-16T21:56:38.652Z,0
2018-03-16T21:57:38.885Z,0
2018-03-16T21:58:39.147Z,0
2018-03-16T21:59:39.149Z,0
2018-03-16T22:00:39.144Z,0
2018-03-16T22:01:38.612Z,0
2018-03-16T22:02:39.129Z,0
2018-03-16T22:03:38.868Z,0
2018-03-16T22:04:39.107Z,0
2018-03-16T22:05:38.843Z,0
2018-03-16T22:06:39.359Z,0
2018-03-16T22:07:38.832Z,0
2018-03-16T22:08:38.822Z,0
2018-03-16T22:09:39.107Z,0
2018-03-16T22:10:38.801Z,0
2018-03-16T22:11:38.555Z,0
2018-03-16T22:12:39.045Z,0
2018-03-16T22:13:38.932Z,0
2018-03-16T22:14:38.776Z,0
2018-03-16T22:15:38.788Z,0
2018-03-16T22:16:39.012Z,0
2018-03-16T22:17:38.511Z,0
2018-03-16T22:18:38.754Z,0
2018-03-16T22:19:38.760Z,0
2018-03-16T22:20:38.738Z,0
2018-03-16T22:21:38.734Z,0
2018-03-16T22:22:39.021Z,0
2018-03-16T22:23:38.731Z,0
2018-03-16T22:24:38.733Z,0
2018-03-16T22:25:38.707Z,0
2018-03-16T22:26:38.455Z,0
2018-03-16T22:27:38.684Z,0
2018-03-16T22:28:38.992Z,0
2018-03-16T22:29:38.432Z,0
2018-03-16T22:30:38.937Z,0
2018-03-16T22:31:38.925Z,0
2018-03-16T22:32:38.711Z,0
2018-03-16T22:33:38.897Z,0
2018-03-16T22:34:38.894Z,0
2018-03-16T22:35:38.632Z,0
2018-03-16T22:36:40.883Z,0
2018-03-16T22:37:38.869Z,0
2018-03-16T22:38:38.650Z,0
2018-03-16T22:39:38.609Z,0
2018-03-16T22:40:38.857Z,0
2018-03-16T22:41:38.592Z,0
2018-03-16T22:42:38.077Z,0
2018-03-16T22:43:38.837Z,0
2018-03-16T22:44:38.835Z,0
2018-03-16T22:45:38.823Z,0
2018-03-16T22:46:38.582Z,0
2018-03-16T22:47:38.857Z,0
2018-03-16T22:48:38.789Z,0
2018-03-16T22:49:38.582Z,0
2018-03-16T22:50:38.576Z,0
2018-03-16T22:51:38.572Z,0
2018-03-16T22:52:38.533Z,0
2018-03-16T22:53:38.767Z,0
2018-03-16T22:54:38.769Z,0
2018-03-16T22:55:38.502Z,0
2018-03-16T22:56:38.858Z,0
2018-03-16T22:57:38.483Z,0
2018-03-16T22:58:38.721Z,0
2018-03-16T22:59:38.477Z,0
2018-03-16T23:00:38.719Z,0
2018-03-16T23:01:38.451Z,0
2018-03-16T23:02:38.714Z,0
2018-03-16T23:03:38.170Z,0
2018-03-16T23:04:38.673Z,0
2018-03-16T23:05:38.663Z,0
2018-03-16T23:06:38.674Z,0
2018-03-16T23:07:38.417Z,0
2018-03-16T23:08:38.644Z,0
2018-03-16T23:09:38.655Z,0
2018-03-16T23:10:38.671Z,0
2018-03-16T23:11:38.387Z,0
2018-03-16T23:12:38.630Z,0
2018-03-16T23:13:38.637Z,0
2018-03-16T23:14:38.329Z,0
2018-03-16T23:15:38.331Z,0
2018-03-16T23:16:38.085Z,0
2018-03-16T23:17:38.310Z,0
2018-03-16T23:18:38.318Z,0
2018-03-16T23:19:38.082Z,0
2018-03-16T23:20:38.289Z,0
2018-03-16T23:21:38.579Z,0
2018-03-16T23:22:38.851Z,0
2018-03-16T23:23:38.544Z,0
2018-03-16T23:24:38.598Z,0
2018-03-16T23:25:38.290Z,0
2018-03-16T23:26:38.252Z,0
2018-03-16T23:27:38.516Z,0
2018-03-16T23:28:38.511Z,0
2018-03-16T23:29:38.510Z,0
2018-03-16T23:30:38.475Z,0
2018-03-16T23:31:38.486Z,0
2018-03-16T23:32:37.960Z,0
2018-03-16T23:33:37.694Z,0
2018-03-16T23:34:38.454Z,0
2018-03-16T23:35:38.178Z,0
2018-03-16T23:36:38.320Z,0
2018-03-16T23:37:38.434Z,0
2018-03-16T23:38:38.429Z,0
2018-03-16T23:39:38.420Z,0
2018-03-16T23:40:38.397Z,0
2018-03-16T23:41:38.401Z,0
2018-03-16T23:42:38.135Z,0
2018-03-16T23:43:38.120Z,0
2018-03-16T23:44:38.381Z,0
2018-03-16T23:45:38.112Z,0
2018-03-16T23:46:38.358Z,0
2018-03-16T23:47:38.352Z,0
2018-03-16T23:48:38.349Z,0
2018-03-16T23:49:38.110Z,0
2018-03-16T23:50:38.322Z,0
2018-03-16T23:51:38.327Z,0
2018-03-16T23:52:38.519Z,0
2018-03-16T23:53:38.060Z,0
2018-03-16T23:54:38.296Z,0
2018-03-16T23:55:38.284Z,0
2018-03-16T23:56:38.030Z,0
2018-03-16T23:57:38.276Z,0
2018-03-16T23:58:38.259Z,0
2018-03-16T23:59:38.253Z,0
